Aeroporto :
LOGIN :

Iscrizione | Disclaimer

   EN    FR    IT 

 










Sommario :    VFR   VFR Marginale   IFR   IFR Intensivo   IFR Molto Intensivo
Visibilità : 
Base nubi : 
>= 8 km
>= 3000ft
5 / 8 km
1000 / 3000 ft
1500m / 5 km
500 / 1000 ft
800 / 1500m
200 / 500 ft
< 800m
< 200 ft
Simboli :   Temporali  Nebbia  Neve Forte  Precipitazioni Forti  Vento > 20 kt
SIGMETs :   Varie  Temporali  Ghiacco  Turbolenza  Onda orograficha  Ceneri Vulcaniche







- Altitudine del aeroporto : 726 ft
- Codice IATA : DIJ
- Carte del aeroporto


LFSD - Dijon

ULTIMO METAR :
  • 211830Z AUTO 15006KT CAVOK 29/14 Q1021

METARs OBSOLETI :
  • 211800Z AUTO 16007KT CAVOK 30/13 Q1021
  • 211730Z AUTO 15007KT 110V190 CAVOK 31/13 Q1020
  • 211700Z AUTO VRB04KT 9999 FEW011 31/14 Q1020
  • 211630Z AUTO VRB02KT CAVOK 32/10 Q1020
  • 211600Z AUTO 11006KT 030V180 CAVOK 32/14 Q1020

Previsioni scadute.
Nessun NOTAM noto per questo aeroporto.



MetMap, La meteo Aeronautica in un colpo d'occhio ! - Copyright ORBIFLY Dicembre 2007 - Disclaimer

ORBIFLY MET'MAP TEAM :

Programmazione e sviluppo : Alexandra Zaïnal
Concezione e sviluppo : Baudouin d'Aumeries
Co-Programmazione e sviluppo : Marc-Olivier Méhu
Supporto tecnico e logistico : Manuel Goepfert
Aiuto per la traduzione : Arnaldo La Scala

Contatto : metmap@orbifly.com




FONTI E CREDITI :

   NOAA